Time;durP1;ratioP1;P1;durP2;ratioP2;P2;SDS_P1;SDS_P2;PMS_P1;PMS_P2;Temp;Humidity;BMP_temperature;BMP_pressure;BME280_temperature;BME280_humidity;BME280_pressure;Samples;Min_cycle;Max_cycle;Signal;HPM_P1;HPM_P2
2023/03/31 00:00:17;;;;;;;10.80;2.20;;;;;;;9.06;83.48;99459.77;110841;1260;22358;-58
2023/03/31 00:03:08;;;;;;;11.80;2.10;;;;;;;9.07;83.32;99457.11;110864;1264;23314;-59
2023/03/31 00:05:39;;;;;;;9.60;1.90;;;;;;;9.08;83.36;99455.40;110848;1266;22420;-59
2023/03/31 00:08:12;;;;;;;13.80;2.20;;;;;;;9.08;83.20;99454.04;110847;1262;22244;-56
2023/03/31 00:10:47;;;;;;;11.30;2.00;;;;;;;9.09;83.19;99450.48;110850;1271;22965;-59
2023/03/31 00:13:18;;;;;;;13.90;2.30;;;;;;;9.08;83.13;99442.84;110546;1264;22517;-58
2023/03/31 00:15:48;;;;;;;11.90;2.20;;;;;;;9.06;83.03;99443.73;106791;1269;24538;-56
2023/03/31 00:18:19;;;;;;;13.10;2.30;;;;;;;9.03;82.92;99439.89;106776;1266;24389;-56
2023/03/31 00:20:51;;;;;;;9.00;2.10;;;;;;;8.98;82.74;99444.98;106832;1271;22747;-57
2023/03/31 00:23:26;;;;;;;11.10;2.40;;;;;;;8.91;82.65;99448.70;106756;1263;23380;-57
2023/03/31 00:25:57;;;;;;;8.40;1.60;;;;;;;8.84;82.85;99443.81;110828;1260;22234;-58
2023/03/31 00:28:28;;;;;;;12.90;2.00;;;;;;;8.78;82.75;99439.67;110895;1266;22246;-58
2023/03/31 00:31:03;;;;;;;11.20;2.20;;;;;;;8.73;82.99;99439.05;110881;1266;22962;-58
2023/03/31 00:33:34;;;;;;;12.00;1.60;;;;;;;8.70;83.08;99435.43;110881;1264;22415;-59
2023/03/31 00:36:05;;;;;;;6.70;1.30;;;;;;;8.67;82.94;99439.09;110846;1256;23028;-59
2023/03/31 00:38:36;;;;;;;8.70;1.40;;;;;;;8.66;83.09;99434.49;110869;1263;23024;-58
2023/03/31 00:41:07;;;;;;;8.50;1.60;;;;;;;8.64;82.94;99434.73;110892;1263;22192;-59
2023/03/31 00:43:39;;;;;;;9.60;1.60;;;;;;;8.61;82.93;99432.21;110905;1271;22289;-58
2023/03/31 00:46:17;;;;;;;9.70;1.20;;;;;;;8.60;82.82;99429.11;110879;1269;22273;-58
2023/03/31 00:48:51;;;;;;;10.80;1.30;;;;;;;8.58;82.70;99428.63;110904;1266;23232;-59
2023/03/31 00:51:24;;;;;;;9.10;1.30;;;;;;;8.56;82.58;99424.56;110867;1266;22268;-59
2023/03/31 00:53:58;;;;;;;7.10;1.30;;;;;;;8.53;82.63;99421.97;110838;1259;22362;-58
2023/03/31 00:56:34;;;;;;;7.90;1.80;;;;;;;8.48;82.89;99419.03;110897;1263;22300;-58
2023/03/31 00:59:08;;;;;;;9.00;1.30;;;;;;;8.39;83.05;99422.04;110856;1263;22332;-58
2023/03/31 01:01:42;;;;;;;8.80;1.30;;;;;;;8.33;83.16;99419.83;110867;1271;22271;-59
2023/03/31 01:04:15;;;;;;;7.60;1.30;;;;;;;8.29;83.56;99416.52;110843;1266;22206;-58
2023/03/31 01:06:56;;;;;;;8.70;1.40;;;;;;;8.26;83.57;99414.52;107125;1263;23178;-59
2023/03/31 01:09:29;;;;;;;6.90;1.50;;;;;;;8.25;83.77;99411.15;110889;1263;22204;-59
2023/03/31 01:12:01;;;;;;;9.20;1.60;;;;;;;8.24;83.76;99407.32;110879;1263;22140;-58
2023/03/31 01:14:33;;;;;;;5.50;1.20;;;;;;;8.23;83.90;99403.92;110824;1257;22279;-58
2023/03/31 01:17:04;;;;;;;8.90;1.80;;;;;;;8.24;83.79;99405.65;110879;1271;22146;-59
2023/03/31 01:19:50;;;;;;;12.60;1.70;;;;;;;8.23;83.76;99401.95;110856;1271;23238;-59
2023/03/31 01:23:00;;;;;;;11.30;2.20;;;;;;;8.22;83.79;99395.35;110925;1259;22160;-58
2023/03/31 01:26:01;;;;;;;8.60;1.10;;;;;;;8.21;83.69;99391.91;110269;1266;23037;-60
2023/03/31 01:28:40;;;;;;;7.40;1.60;;;;;;;8.21;83.58;99389.79;110236;1268;22334;-59
2023/03/31 01:31:58;;;;;;;8.10;1.70;;;;;;;8.20;83.68;99395.04;110251;1274;22279;-59
2023/03/31 01:34:57;;;;;;;10.90;1.50;;;;;;;8.18;83.65;99396.82;110229;1273;22286;-59
2023/03/31 01:38:01;;;;;;;8.60;1.20;;;;;;;8.15;83.64;99391.90;110241;1271;22318;-59
2023/03/31 01:41:06;;;;;;;9.90;1.30;;;;;;;8.12;83.81;99385.16;109804;1280;22330;-58
2023/03/31 01:43:44;;;;;;;7.40;1.40;;;;;;;8.10;83.90;99382.05;109530;1283;23038;-58
2023/03/31 01:46:27;;;;;;;9.00;1.80;;;;;;;8.09;83.80;99383.19;109564;1283;22434;-59
2023/03/31 01:49:07;;;;;;;7.60;1.20;;;;;;;8.09;83.66;99380.56;109540;1276;22292;-58
2023/03/31 01:51:45;;;;;;;10.40;1.90;;;;;;;8.09;83.76;99382.39;109473;1285;22346;-58
2023/03/31 01:54:20;;;;;;;8.80;1.60;;;;;;;8.07;83.90;99381.30;109551;1285;22266;-58
2023/03/31 01:56:55;;;;;;;7.40;1.60;;;;;;;8.06;83.86;99377.23;109571;1283;23018;-58
2023/03/31 01:59:31;;;;;;;7.10;1.50;;;;;;;8.05;84.09;99378.19;109567;1280;22329;-58
2023/03/31 02:02:07;;;;;;;8.90;1.90;;;;;;;8.04;84.06;99374.02;109615;1284;22269;-58
2023/03/31 02:04:43;;;;;;;8.20;2.10;;;;;;;8.02;84.02;99373.24;109806;1284;22193;-58
2023/03/31 02:07:20;;;;;;;7.20;1.60;;;;;;;8.02;84.19;99368.73;109755;1277;23138;-59
2023/03/31 02:09:53;;;;;;;12.20;2.10;;;;;;;8.01;84.25;99373.11;109694;1280;22220;-58
2023/03/31 02:12:29;;;;;;;8.10;2.10;;;;;;;7.99;84.36;99376.01;109759;1277;22287;-58
2023/03/31 02:15:03;;;;;;;10.60;1.60;;;;;;;7.98;84.27;99371.92;109758;1278;23058;-57
2023/03/31 02:17:39;;;;;;;7.80;1.50;;;;;;;7.98;84.17;99372.31;109819;1277;22354;-57
2023/03/31 02:20:15;;;;;;;10.00;2.10;;;;;;;7.98;84.20;99371.10;108735;1263;26597;-58
2023/03/31 02:22:51;;;;;;;10.90;1.80;;;;;;;7.99;84.14;99375.52;110882;1271;22253;-58
2023/03/31 02:25:28;;;;;;;8.00;2.00;;;;;;;7.97;84.08;99375.13;110880;1263;22185;-59
2023/03/31 02:28:03;;;;;;;7.50;1.80;;;;;;;7.96;84.02;99371.69;110834;1266;22198;-59
2023/03/31 02:30:42;;;;;;;10.60;1.80;;;;;;;7.96;83.96;99370.61;110701;1265;23061;-57
2023/03/31 02:33:14;;;;;;;15.80;2.50;;;;;;;7.95;83.82;99362.40;110862;1266;22387;-59
2023/03/31 02:35:45;;;;;;;11.70;1.90;;;;;;;7.94;83.75;99360.94;110861;1265;22156;-57
2023/03/31 02:38:16;;;;;;;10.60;1.80;;;;;;;7.94;83.65;99360.73;110891;1256;22300;-58
2023/03/31 02:40:47;;;;;;;9.00;1.60;;;;;;;7.92;83.67;99361.00;110858;1271;22213;-58
2023/03/31 02:43:18;;;;;;;10.60;2.30;;;;;;;7.90;83.48;99352.84;110895;1268;22187;-58
2023/03/31 02:45:51;;;;;;;7.30;1.70;;;;;;;7.86;83.64;99351.77;110896;1266;22171;-58
2023/03/31 02:48:26;;;;;;;8.50;2.20;;;;;;;7.84;83.51;99351.52;110873;1267;22346;-58
2023/03/31 02:51:33;;;;;;;11.30;2.30;;;;;;;7.83;83.41;99346.66;110822;1259;22175;-59
2023/03/31 02:54:24;;;;;;;13.00;2.60;;;;;;;7.81;83.28;99340.98;110853;1267;22337;-56
2023/03/31 02:57:03;;;;;;;;;;;;;;;7.77;83.26;99339.26;110690;1262;23216;-59
2023/03/31 02:59:44;;;;;;;10.40;2.30;;;;;;;7.75;83.20;99341.70;110699;1263;22346;-58
2023/03/31 03:02:26;;;;;;;10.60;2.30;;;;;;;7.72;83.17;99332.50;110676;1257;22344;-59
2023/03/31 03:05:19;;;;;;;15.20;3.40;;;;;;;7.70;82.99;99329.19;110846;1266;22175;-58
2023/03/31 03:07:58;;;;;;;8.80;2.50;;;;;;;7.67;83.04;99332.27;110884;1271;22296;-59
2023/03/31 03:10:39;;;;;;;11.10;2.20;;;;;;;7.64;83.06;99332.17;110879;1263;22327;-57
2023/03/31 03:13:18;;;;;;;15.20;2.80;;;;;;;7.61;83.12;99331.30;110823;1267;22503;-58
2023/03/31 03:15:52;;;;;;;9.60;2.50;;;;;;;7.59;83.26;99332.53;110817;1259;22514;-58
2023/03/31 03:18:23;;;;;;;12.50;3.90;;;;;;;7.55;83.10;99332.63;110891;1266;22258;-58
2023/03/31 03:20:54;;;;;;;17.90;3.40;;;;;;;7.51;82.87;99331.29;110806;1259;22192;-56
2023/03/31 03:23:25;;;;;;;11.80;3.10;;;;;;;7.47;83.07;99331.80;110873;1257;23251;-59
2023/03/31 03:25:56;;;;;;;11.40;3.50;;;;;;;7.46;83.02;99326.11;110861;1271;22461;-58
2023/03/31 03:28:27;;;;;;;10.10;3.20;;;;;;;7.44;83.05;99324.31;110890;1260;22198;-59
2023/03/31 03:30:58;;;;;;;11.50;3.00;;;;;;;7.41;82.90;99320.67;110877;1266;22201;-58
2023/03/31 03:33:29;;;;;;;12.10;3.50;;;;;;;7.38;82.81;99322.00;110888;1263;22342;-59
2023/03/31 03:36:00;;;;;;;14.30;3.90;;;;;;;7.35;82.89;99322.71;110861;1266;22842;-59
2023/03/31 03:38:30;;;;;;;10.70;2.90;;;;;;;7.31;83.01;99318.45;110871;1263;22430;-59
2023/03/31 03:41:01;;;;;;;9.90;3.00;;;;;;;7.26;82.92;99312.15;110876;1268;22239;-59
2023/03/31 03:43:32;;;;;;;10.90;2.50;;;;;;;7.22;82.98;99310.07;110870;1265;22322;-59
2023/03/31 03:46:03;;;;;;;13.40;3.50;;;;;;;7.19;83.09;99310.62;110884;1266;22190;-58
2023/03/31 03:48:34;;;;;;;14.30;3.70;;;;;;;7.16;83.19;99309.54;110879;1263;22186;-58
2023/03/31 03:51:06;;;;;;;9.90;3.40;;;;;;;7.11;83.35;99308.52;110880;1259;23215;-59
2023/03/31 03:53:36;;;;;;;12.80;3.50;;;;;;;7.08;83.70;99302.30;110868;1259;22425;-59
2023/03/31 03:56:08;;;;;;;9.50;3.00;;;;;;;7.06;84.09;99303.52;110861;1263;23459;-58
2023/03/31 03:58:38;;;;;;;15.40;3.80;;;;;;;7.06;84.16;99297.87;110876;1270;22524;-59
2023/03/31 04:01:09;;;;;;;14.90;4.70;;;;;;;7.05;84.24;99301.52;110876;1266;22211;-56
2023/03/31 04:03:40;;;;;;;13.50;5.00;;;;;;;7.04;84.53;99297.39;110882;1257;22260;-58
2023/03/31 04:06:11;;;;;;;14.70;5.00;;;;;;;7.03;84.69;99298.43;110860;1266;22146;-58
2023/03/31 04:08:42;;;;;;;16.40;4.50;;;;;;;7.04;84.55;99301.16;110881;1263;22353;-57
2023/03/31 04:11:17;;;;;;;15.60;4.80;;;;;;;7.04;84.59;99302.42;110887;1263;23107;-57
2023/03/31 04:13:48;;;;;;;13.50;4.00;;;;;;;7.04;84.60;99301.96;110896;1266;22322;-58
2023/03/31 04:16:21;;;;;;;13.10;3.90;;;;;;;7.03;84.60;99295.56;110851;1266;22325;-58
2023/03/31 04:18:55;;;;;;;15.30;4.20;;;;;;;7.02;84.69;99294.27;110839;1263;22445;-60
2023/03/31 04:21:26;;;;;;;12.60;3.70;;;;;;;7.02;84.76;99286.69;107182;1260;24262;-59
2023/03/31 04:24:00;;;;;;;15.90;4.40;;;;;;;7.02;84.79;99284.32;106805;1269;22529;-59
2023/03/31 04:26:37;;;;;;;12.90;3.70;;;;;;;7.01;84.78;99284.38;106754;1258;24195;-57
2023/03/31 04:29:09;;;;;;;11.60;3.80;;;;;;;7.00;84.77;99277.12;110838;1263;22402;-57
2023/03/31 04:31:41;;;;;;;14.60;3.50;;;;;;;7.00;84.82;99278.89;110872;1271;22637;-58
2023/03/31 04:34:14;;;;;;;12.60;3.90;;;;;;;6.99;84.88;99277.17;110882;1264;22160;-59
2023/03/31 04:36:47;;;;;;;13.10;3.00;;;;;;;6.98;85.01;99274.98;110858;1266;22357;-58
2023/03/31 04:39:25;;;;;;;13.50;3.60;;;;;;;6.97;84.89;99274.55;110889;1266;22189;-59
2023/03/31 04:41:56;;;;;;;15.90;3.80;;;;;;;6.95;84.83;99269.67;110791;1259;22216;-58
2023/03/31 04:44:28;;;;;;;10.70;3.30;;;;;;;6.96;84.83;99273.21;106791;1264;25476;-58
2023/03/31 04:47:01;;;;;;;14.40;4.10;;;;;;;6.97;84.88;99273.23;110872;1269;22540;-59
2023/03/31 04:49:32;;;;;;;19.50;4.40;;;;;;;6.96;84.82;99268.73;110801;1257;22290;-59
2023/03/31 04:52:03;;;;;;;14.80;4.50;;;;;;;6.95;84.92;99266.10;110862;1259;23071;-59
2023/03/31 04:54:34;;;;;;;13.90;4.80;;;;;;;6.94;84.82;99260.52;110837;1264;22349;-58
2023/03/31 04:57:05;;;;;;;17.90;7.00;;;;;;;6.95;84.76;99250.75;107832;1260;22626;-58
2023/03/31 04:59:36;;;;;;;19.10;5.80;;;;;;;6.97;84.73;99245.39;106911;1269;25516;-58
2023/03/31 05:02:07;;;;;;;18.00;5.50;;;;;;;6.98;84.61;99242.42;106848;1260;25471;-58
2023/03/31 05:04:38;;;;;;;15.90;4.90;;;;;;;6.99;84.64;99240.23;106948;1271;22510;-58
2023/03/31 05:07:09;;;;;;;18.50;5.30;;;;;;;7.00;84.66;99240.62;106868;1266;24208;-58
2023/03/31 05:09:40;;;;;;;15.70;4.40;;;;;;;7.01;84.51;99237.25;106900;1269;27694;-58
2023/03/31 05:12:11;;;;;;;16.20;5.60;;;;;;;7.00;84.54;99239.60;106875;1256;22979;-58
2023/03/31 05:14:42;;;;;;;16.90;6.30;;;;;;;6.98;84.58;99242.02;106911;1268;24384;-59
2023/03/31 05:17:13;;;;;;;21.40;7.20;;;;;;;6.97;84.53;99242.76;106860;1263;22519;-59
2023/03/31 05:19:44;;;;;;;20.30;7.40;;;;;;;6.97;84.69;99243.89;106954;1271;22567;-59
2023/03/31 05:22:15;;;;;;;22.00;7.90;;;;;;;6.97;84.86;99245.04;106969;1269;22528;-61
2023/03/31 05:24:46;;;;;;;21.90;6.90;;;;;;;6.97;84.91;99247.36;107025;1271;22643;-58
2023/03/31 05:27:18;;;;;;;18.80;5.90;;;;;;;6.95;85.16;99246.55;107064;1266;22660;-59
2023/03/31 05:29:49;;;;;;;16.80;5.80;;;;;;;6.93;85.29;99246.33;106805;1270;22567;-59
2023/03/31 05:32:20;;;;;;;20.60;6.10;;;;;;;6.92;85.57;99243.45;106762;1249;22768;-59
2023/03/31 05:34:55;;;;;;;19.40;5.60;;;;;;;6.93;85.65;99239.52;106652;1271;22639;-57
2023/03/31 05:37:27;;;;;;;14.20;3.80;;;;;;;6.93;86.16;99239.42;106825;1267;22749;-57
2023/03/31 05:39:58;;;;;;;15.90;4.40;;;;;;;6.95;86.49;99237.94;106744;1264;22650;-59
2023/03/31 05:42:28;;;;;;;13.50;4.80;;;;;;;6.97;86.88;99239.69;106756;1269;25507;-58
2023/03/31 05:44:59;;;;;;;14.30;4.70;;;;;;;7.01;87.06;99236.79;110830;1264;22364;-60
2023/03/31 05:47:31;;;;;;;14.50;4.20;;;;;;;7.06;87.33;99232.79;110877;1259;22404;-58
2023/03/31 05:50:06;;;;;;;14.20;5.20;;;;;;;7.11;87.39;99228.92;110884;1260;22304;-59
2023/03/31 05:52:37;;;;;;;14.60;4.10;;;;;;;7.17;87.61;99223.84;110855;1271;22921;-60
2023/03/31 05:55:09;;;;;;;14.60;4.40;;;;;;;7.25;87.75;99227.73;110866;1263;22120;-60
2023/03/31 05:57:40;;;;;;;13.10;5.20;;;;;;;7.34;87.96;99227.33;110880;1269;22455;-60
2023/03/31 06:00:14;;;;;;;14.10;5.20;;;;;;;7.42;88.01;99227.60;109902;1268;25344;-58
2023/03/31 06:02:45;;;;;;;16.10;4.90;;;;;;;7.52;88.16;99224.36;110885;1264;23749;-59
2023/03/31 06:05:16;;;;;;;17.00;5.40;;;;;;;7.61;88.11;99223.43;103299;1264;5474485;-59
2023/03/31 06:07:47;;;;;;;12.00;4.10;;;;;;;7.70;88.20;99220.77;106853;1271;25408;-58
2023/03/31 06:10:19;;;;;;;16.90;5.90;;;;;;;7.79;88.40;99220.10;106762;1271;25291;-59
2023/03/31 06:12:50;;;;;;;17.40;4.30;;;;;;;7.90;88.45;99221.92;110776;1266;22244;-59
2023/03/31 06:15:21;;;;;;;15.20;5.10;;;;;;;7.98;88.43;99218.29;110838;1268;22153;-60
2023/03/31 06:17:52;;;;;;;18.10;5.20;;;;;;;8.05;88.38;99215.20;110777;1267;22232;-60
2023/03/31 06:20:23;;;;;;;17.90;5.50;;;;;;;8.13;88.44;99217.27;110860;1263;23043;-59
2023/03/31 06:23:03;;;;;;;16.10;5.80;;;;;;;8.22;88.48;99212.92;107731;1271;22563;-59
2023/03/31 06:25:42;;;;;;;17.20;5.50;;;;;;;8.32;88.38;99209.17;110827;1271;22890;-60
2023/03/31 06:28:23;;;;;;;14.10;4.70;;;;;;;8.42;88.54;99206.00;110859;1263;22192;-59
2023/03/31 06:31:02;;;;;;;14.80;5.60;;;;;;;8.54;88.49;99207.09;109658;1269;24360;-57
2023/03/31 06:33:35;;;;;;;15.70;5.30;;;;;;;8.67;88.66;99204.05;110834;1263;22310;-59
2023/03/31 06:36:08;;;;;;;14.20;4.70;;;;;;;8.81;88.92;99200.58;110860;1267;22184;-61
2023/03/31 06:38:42;;;;;;;16.50;5.00;;;;;;;8.99;89.06;99200.19;110657;1259;22154;-59
2023/03/31 06:41:16;;;;;;;16.30;5.40;;;;;;;9.16;88.86;99202.54;110864;1258;22355;-58
2023/03/31 06:43:47;;;;;;;13.40;4.50;;;;;;;9.31;88.55;99203.94;110876;1271;22150;-59
2023/03/31 06:46:18;;;;;;;11.60;4.60;;;;;;;9.41;88.24;99202.64;110875;1269;22408;-59
2023/03/31 06:48:49;;;;;;;12.40;4.60;;;;;;;9.48;87.95;99199.55;110858;1269;22132;-59
2023/03/31 06:51:24;;;;;;;18.30;5.10;;;;;;;9.54;87.50;99199.06;110835;1263;22133;-59
2023/03/31 06:53:55;;;;;;;16.50;5.10;;;;;;;9.58;87.42;99195.05;110763;1270;22149;-59
2023/03/31 06:56:27;;;;;;;14.50;4.40;;;;;;;9.62;87.51;99191.98;110854;1263;22242;-59
2023/03/31 06:58:58;;;;;;;16.40;5.60;;;;;;;9.66;87.24;99188.50;108924;1264;26444;-58
2023/03/31 07:01:30;;;;;;;19.20;5.30;;;;;;;9.71;87.43;99190.05;106873;1271;22540;-58
2023/03/31 07:04:01;;;;;;;16.30;5.80;;;;;;;9.76;87.42;99185.16;110805;1260;22154;-58
2023/03/31 07:06:32;;;;;;;18.00;4.90;;;;;;;9.83;87.35;99189.82;110854;1263;22343;-59
2023/03/31 07:09:03;;;;;;;16.20;5.40;;;;;;;9.91;87.35;99194.00;110841;1267;22204;-59
2023/03/31 07:11:34;;;;;;;13.50;4.90;;;;;;;9.99;87.41;99193.24;110805;1268;22318;-59
2023/03/31 07:14:05;;;;;;;15.90;5.20;;;;;;;10.12;87.19;99198.34;109121;1264;24308;-59
2023/03/31 07:16:36;;;;;;;18.70;6.40;;;;;;;10.20;87.08;99193.31;106872;1271;24625;-57
2023/03/31 07:19:09;;;;;;;13.00;5.20;;;;;;;10.28;87.16;99194.66;106953;1257;22576;-59
2023/03/31 07:21:40;;;;;;;18.10;6.30;;;;;;;10.36;87.04;99184.17;110798;1272;22337;-59
2023/03/31 07:24:11;;;;;;;18.50;5.90;;;;;;;10.45;86.92;99176.54;108160;1266;22476;-58
2023/03/31 07:26:42;;;;;;;15.70;5.80;;;;;;;10.52;86.69;99173.61;106875;1270;25331;-58
2023/03/31 07:29:13;;;;;;;16.10;5.90;;;;;;;10.58;86.72;99166.21;106809;1270;25252;-58
2023/03/31 07:31:46;;;;;;;15.20;5.30;;;;;;;10.64;86.44;99168.20;106885;1271;22566;-59
2023/03/31 07:34:18;;;;;;;16.40;5.60;;;;;;;10.69;86.48;99166.95;107233;1269;22544;-58
2023/03/31 07:36:48;;;;;;;18.50;6.30;;;;;;;10.75;86.50;99163.49;107261;1266;22727;-60
2023/03/31 07:39:19;;;;;;;19.90;6.60;;;;;;;10.82;86.36;99156.25;107219;1263;22514;-58
2023/03/31 07:41:50;;;;;;;18.30;7.40;;;;;;;10.89;86.38;99150.72;110873;1268;22171;-59
2023/03/31 07:44:22;;;;;;;21.40;8.40;;;;;;;10.97;86.57;99148.23;110828;1271;22399;-61
2023/03/31 07:46:53;;;;;;;21.20;8.40;;;;;;;11.07;86.25;99148.64;110789;1271;22936;-61
2023/03/31 07:49:23;;;;;;;22.80;8.80;;;;;;;11.17;85.93;99144.51;110865;1269;22808;-61
2023/03/31 07:51:54;;;;;;;19.10;7.60;;;;;;;11.25;85.67;99137.14;110824;1262;23122;-59
2023/03/31 07:54:25;;;;;;;22.70;9.00;;;;;;;11.32;85.64;99136.21;110857;1267;22137;-60
2023/03/31 07:57:00;;;;;;;20.50;9.90;;;;;;;11.40;85.38;99136.65;110870;1268;23194;-60
2023/03/31 07:59:31;;;;;;;22.50;10.50;;;;;;;11.47;85.27;99129.67;110850;1259;22345;-60
2023/03/31 08:02:02;;;;;;;29.50;13.20;;;;;;;11.54;85.04;99121.99;110833;1271;23072;-61
2023/03/31 08:04:33;;;;;;;27.70;11.60;;;;;;;11.61;85.00;99117.39;110758;1271;22349;-61
2023/03/31 08:07:04;;;;;;;28.50;12.50;;;;;;;11.67;84.60;99109.61;110869;1267;22163;-61
2023/03/31 08:09:35;;;;;;;27.20;10.90;;;;;;;11.71;84.18;99113.77;110847;1268;22177;-60
2023/03/31 08:12:07;;;;;;;19.40;6.80;;;;;;;11.75;84.20;99113.36;110899;1269;22270;-60
2023/03/31 08:14:38;;;;;;;17.50;5.50;;;;;;;11.82;84.28;99117.20;110882;1264;22890;-60
2023/03/31 08:17:09;;;;;;;14.60;5.30;;;;;;;11.91;84.27;99112.27;110875;1264;22434;-61
2023/03/31 08:19:40;;;;;;;16.70;5.80;;;;;;;12.01;84.47;99106.42;110872;1272;22435;-61
2023/03/31 08:22:11;;;;;;;13.70;5.10;;;;;;;12.12;84.50;99102.45;110867;1267;22320;-61
2023/03/31 08:24:42;;;;;;;18.20;5.80;;;;;;;12.24;84.46;99105.44;110867;1267;22190;-60
2023/03/31 08:27:13;;;;;;;13.80;5.90;;;;;;;12.36;84.21;99108.66;110863;1269;22237;-61
2023/03/31 08:29:43;;;;;;;19.20;6.20;;;;;;;12.50;83.69;99108.64;110839;1270;22128;-61
2023/03/31 08:32:14;;;;;;;14.20;4.80;;;;;;;12.59;82.86;99101.95;110824;1263;22397;-61
2023/03/31 08:34:45;;;;;;;12.80;4.20;;;;;;;12.65;82.50;99103.84;110786;1271;23296;-61
2023/03/31 08:37:16;;;;;;;13.50;3.30;;;;;;;12.70;82.19;99091.84;110850;1259;22271;-61
2023/03/31 08:39:47;;;;;;;14.50;3.10;;;;;;;12.74;81.85;99090.79;110865;1270;22716;-60
2023/03/31 08:42:26;;;;;;;8.50;2.80;;;;;;;12.81;82.06;99086.15;110866;1268;23044;-60
2023/03/31 08:45:02;;;;;;;12.50;2.50;;;;;;;12.90;82.21;99077.66;110795;1266;22757;-61
2023/03/31 08:47:35;;;;;;;7.90;2.00;;;;;;;13.04;82.00;99073.48;110828;1269;22826;-61
2023/03/31 08:50:13;;;;;;;7.40;1.70;;;;;;;13.14;81.14;99065.04;110850;1263;22323;-59
2023/03/31 08:52:50;;;;;;;9.50;2.20;;;;;;;13.29;81.47;99053.42;110869;1271;22289;-59
2023/03/31 08:55:27;;;;;;;10.90;2.70;;;;;;;13.46;81.19;99045.73;110838;1267;22222;-60
2023/03/31 08:58:03;;;;;;;13.30;2.70;;;;;;;13.62;81.24;99043.68;110810;1268;22187;-60
2023/03/31 09:00:46;;;;;;;8.50;2.90;;;;;;;13.75;80.12;99049.65;110852;1269;22141;-61
2023/03/31 09:03:25;;;;;;;10.10;2.40;;;;;;;13.85;79.20;99053.05;110848;1267;22175;-61
2023/03/31 09:06:01;;;;;;;10.40;2.00;;;;;;;13.94;79.10;99048.64;110846;1269;22148;-61
2023/03/31 09:08:37;;;;;;;9.20;2.20;;;;;;;14.08;78.99;99044.36;110822;1268;22158;-60
2023/03/31 09:11:25;;;;;;;6.80;1.70;;;;;;;14.25;78.61;99034.36;110788;1264;23287;-61
2023/03/31 09:14:21;;;;;;;7.80;1.50;;;;;;;14.40;77.95;99033.80;110746;1271;22869;-61
2023/03/31 09:17:02;;;;;;;6.40;1.40;;;;;;;14.50;77.06;99031.59;110836;1264;23329;-60
2023/03/31 09:19:38;;;;;;;11.30;2.80;;;;;;;14.56;77.10;99030.73;110840;1272;22392;-61
2023/03/31 09:22:16;;;;;;;6.00;1.70;;;;;;;14.65;76.70;99028.60;110754;1266;22317;-61
2023/03/31 09:24:58;;;;;;;10.40;2.10;;;;;;;14.69;76.74;99024.79;110871;1264;22232;-60
2023/03/31 09:27:36;;;;;;;8.50;1.60;;;;;;;14.76;76.76;99019.63;110876;1264;22884;-61
2023/03/31 09:30:14;;;;;;;6.40;2.10;;;;;;;14.87;76.90;99014.17;110857;1270;22251;-61
2023/03/31 09:32:48;;;;;;;9.50;2.30;;;;;;;15.02;76.97;99010.71;110826;1267;22138;-61
2023/03/31 09:35:21;;;;;;;6.40;1.50;;;;;;;15.18;76.11;99008.73;110854;1264;22344;-61
2023/03/31 09:37:53;;;;;;;8.70;1.20;;;;;;;15.23;74.76;99004.23;110871;1271;22215;-61
2023/03/31 09:40:27;;;;;;;11.80;1.80;;;;;;;15.24;74.24;98999.35;110848;1264;22416;-61
2023/03/31 09:43:01;;;;;;;7.30;1.30;;;;;;;15.24;73.60;99002.23;110829;1267;22120;-60
2023/03/31 09:45:33;;;;;;;10.30;1.30;;;;;;;15.24;73.15;98999.61;110897;1264;22376;-61
2023/03/31 09:48:09;;;;;;;11.00;2.30;;;;;;;15.29;73.85;98995.52;110850;1270;22353;-61
2023/03/31 09:50:45;;;;;;;10.20;2.10;;;;;;;15.36;73.45;98992.42;110866;1266;22912;-61
2023/03/31 09:53:23;;;;;;;10.30;1.60;;;;;;;15.40;73.33;98991.42;110859;1264;22276;-61
2023/03/31 09:55:56;;;;;;;8.30;1.50;;;;;;;15.43;72.57;98985.42;110814;1271;22649;-61
2023/03/31 09:58:27;;;;;;;6.30;1.20;;;;;;;15.40;72.24;98984.61;110880;1254;22335;-61
2023/03/31 10:01:05;;;;;;;6.90;1.20;;;;;;;15.41;71.99;98981.25;110837;1261;22348;-61
2023/03/31 10:03:49;;;;;;;8.40;1.60;;;;;;;15.35;71.22;98980.64;110850;1264;22468;-61
2023/03/31 10:06:21;;;;;;;8.80;1.20;;;;;;;15.28;71.10;98976.68;110870;1263;22213;-61
2023/03/31 10:08:54;;;;;;;8.10;1.30;;;;;;;15.17;70.08;98968.02;110785;1264;22200;-61
2023/03/31 10:11:26;;;;;;;10.80;1.50;;;;;;;15.06;70.44;98963.63;110853;1264;22480;-62
2023/03/31 10:14:04;;;;;;;8.10;1.10;;;;;;;14.98;70.05;98961.33;110834;1271;22174;-61
2023/03/31 10:16:44;;;;;;;8.50;1.40;;;;;;;14.91;70.36;98953.30;110836;1271;22282;-61
2023/03/31 10:19:19;;;;;;;;;;;;;;;14.88;70.32;98955.48;110874;1264;22412;-61
2023/03/31 10:21:58;;;;;;;9.80;1.40;;;;;;;14.86;70.04;98952.77;110814;1271;22804;-61
2023/03/31 10:24:38;;;;;;;6.00;1.50;;;;;;;14.87;70.33;98947.23;110789;1269;23078;-61
2023/03/31 10:27:20;;;;;;;7.80;1.40;;;;;;;14.90;70.45;98941.77;110863;1269;22194;-61
2023/03/31 10:29:54;;;;;;;9.10;1.30;;;;;;;14.94;70.26;98942.46;110743;1263;22302;-61
2023/03/31 10:32:28;;;;;;;7.60;1.90;;;;;;;14.97;70.31;98935.36;110857;1263;23163;-61
2023/03/31 10:35:06;;;;;;;12.20;1.40;;;;;;;15.01;70.26;98931.85;110910;1263;22923;-59
2023/03/31 10:37:38;;;;;;;9.00;1.50;;;;;;;15.04;69.83;98930.50;110826;1269;23101;-61
2023/03/31 10:40:19;;;;;;;7.80;1.70;;;;;;;15.02;69.03;98928.95;110825;1269;22174;-61
2023/03/31 10:42:59;;;;;;;15.60;3.30;;;;;;;15.01;69.37;98925.52;110816;1264;22212;-61
2023/03/31 10:45:31;;;;;;;11.90;2.20;;;;;;;15.00;69.44;98920.38;110790;1267;22654;-61
2023/03/31 10:48:02;;;;;;;7.90;1.50;;;;;;;15.04;69.53;98914.35;110845;1264;22278;-61
2023/03/31 10:50:35;;;;;;;7.50;1.30;;;;;;;15.05;69.21;98907.44;110878;1267;22307;-62
2023/03/31 10:53:11;;;;;;;10.90;1.70;;;;;;;15.06;69.01;98904.04;110825;1257;22429;-61
2023/03/31 10:55:52;;;;;;;14.10;1.70;;;;;;;15.02;68.76;98901.10;110839;1271;22346;-61
2023/03/31 10:58:35;;;;;;;10.70;1.60;;;;;;;15.01;68.72;98902.14;110872;1264;22142;-61
2023/03/31 11:01:19;;;;;;;11.00;1.50;;;;;;;14.98;68.70;98898.13;110843;1268;22204;-61
2023/03/31 11:04:06;;;;;;;9.70;1.60;;;;;;;14.95;68.66;98891.04;110614;1267;22195;-61
2023/03/31 11:06:49;;;;;;;6.90;1.10;;;;;;;14.95;68.56;98888.60;110830;1264;22836;-62
2023/03/31 11:09:36;;;;;;;11.30;1.40;;;;;;;14.95;68.48;98888.17;110846;1264;22201;-60
2023/03/31 11:12:18;;;;;;;8.20;1.50;;;;;;;15.00;68.80;98879.94;110779;1261;22177;-61
2023/03/31 11:15:03;;;;;;;8.10;1.20;;;;;;;15.10;69.04;98872.02;110861;1264;22897;-61
2023/03/31 11:17:49;;;;;;;8.60;1.20;;;;;;;15.20;68.91;98868.17;110794;1257;22552;-61
2023/03/31 11:20:26;;;;;;;11.90;1.20;;;;;;;15.33;68.59;98866.75;110865;1264;22356;-62
2023/03/31 11:23:07;;;;;;;8.80;1.30;;;;;;;15.50;68.84;98853.55;110850;1260;23129;-61
2023/03/31 11:25:45;;;;;;;7.30;1.10;;;;;;;15.65;67.81;98852.05;110841;1263;23232;-61
2023/03/31 11:28:33;;;;;;;9.90;1.30;;;;;;;15.78;67.35;98844.67;110843;1264;22545;-61
2023/03/31 11:31:18;;;;;;;9.40;1.60;;;;;;;15.89;67.47;98838.77;110825;1267;23081;-60
2023/03/31 11:34:21;;;;;;;6.30;0.90;;;;;;;16.01;66.51;98830.75;110856;1259;22356;-61
2023/03/31 11:37:20;;;;;;;7.50;1.20;;;;;;;16.03;66.01;98826.06;110847;1264;23052;-61
2023/03/31 11:40:06;;;;;;;7.20;1.00;;;;;;;16.05;65.88;98820.95;110779;1267;22146;-61
2023/03/31 11:42:42;;;;;;;7.10;1.60;;;;;;;16.06;65.47;98814.75;110857;1260;22917;-61
2023/03/31 11:45:19;;;;;;;11.20;1.40;;;;;;;16.05;65.26;98811.52;110852;1257;23121;-62
2023/03/31 11:47:56;;;;;;;7.10;1.70;;;;;;;16.03;65.17;98805.84;110800;1264;22137;-61
2023/03/31 11:50:30;;;;;;;6.00;0.90;;;;;;;16.02;65.11;98795.28;110826;1264;22132;-62
2023/03/31 11:53:04;;;;;;;6.10;1.10;;;;;;;15.97;65.23;98790.02;110844;1271;22656;-61
2023/03/31 11:55:37;;;;;;;9.10;1.10;;;;;;;15.95;65.34;98787.27;110838;1271;22314;-61
2023/03/31 11:58:15;;;;;;;11.90;1.20;;;;;;;15.94;65.06;98783.35;110842;1264;22230;-61
2023/03/31 12:00:52;;;;;;;6.20;0.70;;;;;;;15.92;64.66;98783.80;110813;1264;22198;-61